Time;durP1;ratioP1;P1;durP2;ratioP2;P2;SDS_P1;SDS_P2;PMS_P1;PMS_P2;Temp;Humidity;BMP_temperature;BMP_pressure;BME280_temperature;BME280_humidity;BME280_pressure;Samples;Min_cycle;Max_cycle;Signal;HPM_P1;HPM_P2
2023/05/06 00:02:12;;;;;;;;;;;;;;;16.85;47.64;100769.13;5086819;28;1090;-51
2023/05/06 00:04:38;;;;;;;;;;;;;;;16.65;46.89;100772.66;5069447;28;1097;-51
2023/05/06 00:07:03;;;;;;;;;;;;;;;16.55;46.03;100776.22;5085467;28;1921;-52
2023/05/06 00:09:29;;;;;;;;;;;;;;;16.46;45.64;100775.13;5079224;28;1097;-48
2023/05/06 00:11:55;;;;;;;;;;;;;;;16.27;45.39;100764.69;5078614;28;1062;-55
2023/05/06 00:14:21;;;;;;;;;;;;;;;17.86;46.49;100768.31;5084633;28;855;-48
2023/05/06 00:16:49;;;;;;;;;;;;;;;16.89;47.62;100756.50;5092363;28;1095;-52
2023/05/06 00:19:15;;;;;;;;;;;;;;;16.64;47.10;100760.88;5078122;28;1178;-50
2023/05/06 00:21:40;;;;;;;;;;;;;;;16.42;46.39;100761.97;5078299;28;1102;-50
2023/05/06 00:24:06;;;;;;;;;;;;;;;17.66;46.60;100755.50;5078339;28;1097;-53
2023/05/06 00:26:32;;;;;;;;;;;;;;;16.80;47.45;100753.44;5091084;28;1906;-52
2023/05/06 00:28:58;;;;;;;;;;;;;;;16.94;47.63;100767.47;5078399;28;1104;-50
2023/05/06 00:31:23;;;;;;;;;;;;;;;17.41;47.70;100758.03;5078787;28;1067;-53
2023/05/06 00:33:49;;;;;;;;;;;;;;;16.74;47.94;100758.13;5078832;28;1067;-54
2023/05/06 00:36:14;;;;;;;;;;;;;;;16.66;46.77;100758.69;5078734;28;1069;-51
2023/05/06 00:38:40;;;;;;;;;;;;;;;17.59;47.23;100748.34;5084632;28;859;-54
2023/05/06 00:41:06;;;;;;;;;;;;;;;16.96;47.27;100750.72;5078438;28;1142;-53
2023/05/06 00:43:32;;;;;;;;;;;;;;;16.66;46.86;100757.84;5078191;28;1241;-56
2023/05/06 00:45:58;;;;;;;;;;;;;;;16.56;45.94;100744.94;5077471;28;1906;-55
2023/05/06 00:48:23;;;;;;;;;;;;;;;16.41;45.72;100743.84;5078692;28;1190;-53
2023/05/06 00:50:49;;;;;;;;;;;;;;;17.28;46.67;100742.16;5060184;28;1059;-51
2023/05/06 00:53:17;;;;;;;;;;;;;;;16.73;46.96;100747.41;5068777;28;1094;-53
2023/05/06 00:55:43;;;;;;;;;;;;;;;17.20;47.20;100756.47;5082455;28;1173;-50
2023/05/06 00:58:09;;;;;;;;;;;;;;;17.03;47.40;100749.34;5057037;28;1103;-51
2023/05/06 01:00:35;;;;;;;;;;;;;;;16.71;47.05;100755.94;5058248;28;1175;-50
2023/05/06 01:03:00;;;;;;;;;;;;;;;16.49;46.69;100747.13;5084567;28;1005;-52
2023/05/06 01:05:28;;;;;;;;;;;;;;;16.50;45.50;100740.56;5077791;28;1123;-52
2023/05/06 01:08:09;;;;;;;;;;;;;;;17.51;46.28;100734.38;5066405;28;1906;-50
2023/05/06 01:10:41;;;;;;;;;;;;;;;16.69;47.30;100735.31;5065242;28;1111;-52
2023/05/06 01:13:08;;;;;;;;;;;;;;;16.51;46.26;100732.06;5078674;28;1054;-52
2023/05/06 01:15:39;;;;;;;;;;;;;;;17.53;46.85;100734.91;5059992;28;1051;-50
2023/05/06 01:18:07;;;;;;;;;;;;;;;16.79;47.34;100731.75;5059505;28;1213;-52
2023/05/06 01:20:33;;;;;;;;;;;;;;;16.58;46.69;100740.03;5059643;28;1126;-54
2023/05/06 01:23:00;;;;;;;;;;;;;;;16.44;45.86;100728.75;5077035;28;1086;-53
2023/05/06 01:25:25;;;;;;;;;;;;;;;16.76;46.42;100725.72;5077018;28;1051;-52
2023/05/06 01:27:52;;;;;;;;;;;;;;;16.92;46.42;100733.97;5077241;28;1982;-49
2023/05/06 01:30:18;;;;;;;;;;;;;;;16.54;46.47;100723.25;5076293;28;1134;-53
2023/05/06 01:32:44;;;;;;;;;;;;;;;17.62;46.58;100724.97;5059516;28;1055;-53
2023/05/06 01:35:15;;;;;;;;;;;;;;;16.81;47.44;100726.81;5059263;28;1110;-52
2023/05/06 01:37:44;;;;;;;;;;;;;;;16.56;46.77;100722.97;5061426;28;1051;-51
2023/05/06 01:40:11;;;;;;;;;;;;;;;17.10;47.43;100718.84;5042313;28;1102;-49
2023/05/06 01:42:36;;;;;;;;;;;;;;;16.71;47.50;100722.97;5052712;28;1222;-53
2023/05/06 01:45:02;;;;;;;;;;;;;;;16.55;46.66;100727.66;5049206;28;1015;-51
2023/05/06 01:47:28;;;;;;;;;;;;;;;16.46;46.20;100726.56;5059229;28;1914;-50
2023/05/06 01:49:55;;;;;;;;;;;;;;;16.38;45.65;100718.84;5058991;28;1153;-54
2023/05/06 01:52:20;;;;;;;;;;;;;;;17.05;47.10;100721.59;5058424;28;1137;-54
2023/05/06 01:54:46;;;;;;;;;;;;;;;16.65;47.06;100718.59;5076843;28;1209;-52
2023/05/06 01:57:12;;;;;;;;;;;;;;;16.46;46.67;100721.06;5076927;28;967;-52
2023/05/06 01:59:37;;;;;;;;;;;;;;;17.51;46.21;100718.69;5058394;28;1043;-52
2023/05/06 02:02:03;;;;;;;;;;;;;;;16.72;47.26;100718.31;5076189;28;1162;-51
2023/05/06 02:04:28;;;;;;;;;;;;;;;17.37;46.97;100717.66;5067349;28;1078;-53
2023/05/06 02:06:54;;;;;;;;;;;;;;;17.57;47.34;100727.75;5060730;28;1980;-56
2023/05/06 02:09:20;;;;;;;;;;;;;;;16.94;47.89;100720.78;5067193;28;1127;-53
2023/05/06 02:11:52;;;;;;;;;;;;;;;16.71;47.04;100720.22;5058214;28;1146;-55
2023/05/06 02:14:17;;;;;;;;;;;;;;;17.55;47.28;100708.78;5061566;28;1525;-54
2023/05/06 02:16:43;;;;;;;;;;;;;;;16.94;47.78;100723.53;5058639;28;1324;-55
2023/05/06 02:19:08;;;;;;;;;;;;;;;16.63;47.50;100720.78;5059077;28;1154;-52
2023/05/06 02:21:34;;;;;;;;;;;;;;;16.58;46.49;100723.53;5058299;28;1113;-54
2023/05/06 02:24:00;;;;;;;;;;;;;;;17.49;47.12;100711.81;5058350;28;1305;-55
2023/05/06 02:26:25;;;;;;;;;;;;;;;16.75;47.50;100717.78;5058762;28;1968;-56
2023/05/06 02:28:51;;;;;;;;;;;;;;;16.60;47.13;100718.59;5056541;28;1131;-53
2023/05/06 02:31:17;;;;;;;;;;;;;;;16.46;46.79;100714.75;5073914;28;1083;-51
2023/05/06 02:33:43;;;;;;;;;;;;;;;17.67;46.90;100713.13;5058281;28;1297;-55
2023/05/06 02:36:10;;;;;;;;;;;;;;;16.86;47.70;100713.91;5076171;28;1150;-54
2023/05/06 02:38:35;;;;;;;;;;;;;;;16.60;47.36;100707.63;5085455;28;1078;-55
2023/05/06 02:41:01;;;;;;;;;;;;;;;17.50;47.09;100703.31;5060271;28;1318;-54
2023/05/06 02:43:26;;;;;;;;;;;;;;;16.80;47.83;100705.94;5075843;28;1217;-53
2023/05/06 02:45:52;;;;;;;;;;;;;;;16.61;47.08;100709.25;5075845;28;1918;-54
2023/05/06 02:48:18;;;;;;;;;;;;;;;16.92;47.56;100709.25;5076401;28;1027;-54
2023/05/06 02:50:43;;;;;;;;;;;;;;;17.11;47.80;100715.00;5077115;28;1027;-54
2023/05/06 02:53:09;;;;;;;;;;;;;;;16.64;47.66;100708.72;5067338;28;1178;-52
2023/05/06 02:55:35;;;;;;;;;;;;;;;16.63;46.86;100709.00;5041313;28;1151;-51
2023/05/06 02:58:01;;;;;;;;;;;;;;;17.52;46.89;100703.03;5058246;28;1288;-55
2023/05/06 03:00:26;;;;;;;;;;;;;;;16.84;47.46;100704.28;5075856;28;1142;-55
2023/05/06 03:02:52;;;;;;;;;;;;;;;16.60;47.31;100700.19;5067999;28;1237;-54
2023/05/06 03:05:17;;;;;;;;;;;;;;;16.54;47.01;100698.56;5077786;28;1042;-54
2023/05/06 03:07:43;;;;;;;;;;;;;;;17.36;47.14;100694.00;5081693;28;1909;-54
2023/05/06 03:10:09;;;;;;;;;;;;;;;16.69;47.86;100692.25;5057800;28;1327;-52
2023/05/06 03:12:36;;;;;;;;;;;;;;;16.61;47.12;100695.53;5058082;28;1111;-54
2023/05/06 03:15:02;;;;;;;;;;;;;;;16.52;46.66;100697.19;5057268;28;1106;-53
2023/05/06 03:17:28;;;;;;;;;;;;;;;17.33;47.26;100691.84;5058085;28;1202;-51
2023/05/06 03:19:54;;;;;;;;;;;;;;;16.74;47.54;100689.47;5057841;28;1384;-50
2023/05/06 03:22:20;;;;;;;;;;;;;;;16.62;47.19;100688.13;5057703;28;1146;-52
2023/05/06 03:24:46;;;;;;;;;;;;;;;17.33;47.49;100689.91;5057685;28;1344;-53
2023/05/06 03:27:11;;;;;;;;;;;;;;;16.73;47.96;100697.97;5076699;28;1926;-53
2023/05/06 03:29:38;;;;;;;;;;;;;;;16.57;47.18;100691.69;5058013;28;1452;-52
2023/05/06 03:32:06;;;;;;;;;;;;;;;17.44;47.48;100698.94;5057585;28;1376;-54
2023/05/06 03:34:38;;;;;;;;;;;;;;;16.79;47.83;100698.81;5075608;28;1098;-51
2023/05/06 03:37:04;;;;;;;;;;;;;;;16.51;47.60;100709.25;5058033;28;1296;-52
2023/05/06 03:39:29;;;;;;;;;;;;;;;16.48;46.97;100718.03;5061906;28;1338;-53
2023/05/06 03:41:56;;;;;;;;;;;;;;;16.48;46.20;100721.63;5048713;28;1295;-51
2023/05/06 03:44:22;;;;;;;;;;;;;;;17.18;47.29;100729.25;5054889;28;1119;-54
2023/05/06 03:46:48;;;;;;;;;;;;;;;16.65;47.23;100739.72;5036826;28;1902;-49
2023/05/06 03:49:14;;;;;;;;;;;;;;;17.78;46.96;100751.31;5037298;28;1339;-54
2023/05/06 03:51:42;;;;;;;;;;;;;;;17.23;48.09;100756.72;5041774;28;1155;-48
2023/05/06 03:54:08;;;;;;;;;;;;;;;16.79;47.89;100759.22;5058453;28;1249;-51
2023/05/06 03:56:35;;;;;;;;;;;;;;;16.63;47.37;100764.72;5078453;28;1051;-55
2023/05/06 03:59:00;;;;;;;;;;;;;;;16.54;46.54;100767.19;5059194;28;1364;-55
2023/05/06 04:01:27;;;;;;;;;;;;;;;16.43;46.50;100771.00;5060116;28;1157;-56
2023/05/06 04:03:53;;;;;;;;;;;;;;;17.51;47.00;100773.69;5072247;28;1193;-54
2023/05/06 04:06:20;;;;;;;;;;;;;;;16.62;48.07;100787.78;5083119;28;1910;-53
2023/05/06 04:08:46;;;;;;;;;;;;;;;16.46;47.21;100780.63;5066658;28;1054;-55
2023/05/06 04:11:12;;;;;;;;;;;;;;;16.41;46.53;100787.75;5080845;28;1107;-56
2023/05/06 04:13:37;;;;;;;;;;;;;;;16.40;45.98;100786.09;5074345;28;1070;-56
2023/05/06 04:16:11;;;;;;;;;;;;;;;17.06;47.00;100778.19;5060604;28;1143;-53
2023/05/06 04:18:40;;;;;;;;;;;;;;;16.56;47.38;100786.13;5060769;28;1134;-54
2023/05/06 04:21:10;;;;;;;;;;;;;;;16.41;46.67;100787.75;5060731;28;1167;-55
2023/05/06 04:23:38;;;;;;;;;;;;;;;17.19;46.95;100788.59;5060529;28;1111;-56
2023/05/06 04:26:05;;;;;;;;;;;;;;;16.71;47.32;100794.38;5060053;28;1941;-55
2023/05/06 04:28:32;;;;;;;;;;;;;;;16.47;46.97;100785.84;5071164;28;1497;-54
2023/05/06 04:30:58;;;;;;;;;;;;;;;16.30;46.63;100788.84;5060297;28;1126;-54
2023/05/06 04:33:33;;;;;;;;;;;;;;;17.29;46.82;100798.75;5045431;28;1467;-57
2023/05/06 04:36:02;;;;;;;;;;;;;;;16.60;47.23;100795.47;5060404;28;1257;-52
2023/05/06 04:38:30;;;;;;;;;;;;;;;16.38;47.08;100795.69;5061211;28;1303;-53
2023/05/06 04:40:57;;;;;;;;;;;;;;;16.99;47.28;100789.44;5063798;28;1137;-52
2023/05/06 04:43:23;;;;;;;;;;;;;;;16.84;47.88;100792.19;5059948;28;1194;-54
2023/05/06 04:45:55;;;;;;;;;;;;;;;16.51;47.57;100791.59;5059097;28;1985;-57
2023/05/06 04:48:25;;;;;;;;;;;;;;;16.78;47.79;100794.09;5060464;28;1301;-52
2023/05/06 04:50:54;;;;;;;;;;;;;;;17.16;47.93;100793.84;5063339;28;1063;-53
2023/05/06 04:53:20;;;;;;;;;;;;;;;16.71;47.89;100794.38;5068262;28;2001;-51
2023/05/06 04:55:45;;;;;;;;;;;;;;;16.45;47.53;100789.94;5077585;28;1031;-52
2023/05/06 04:58:12;;;;;;;;;;;;;;;16.92;47.68;100788.91;5045659;28;1250;-50
2023/05/06 05:00:37;;;;;;;;;;;;;;;17.03;47.99;100796.03;5059948;28;1466;-54
2023/05/06 05:03:03;;;;;;;;;;;;;;;17.68;46.99;100787.09;5062830;28;1155;-52
2023/05/06 05:05:29;;;;;;;;;;;;;;;17.41;47.36;100791.03;5057287;28;1872;-54
2023/05/06 05:07:55;;;;;;;;;;;;;;;17.00;48.33;100793.84;5054772;28;1982;-51
2023/05/06 05:10:23;;;;;;;;;;;;;;;16.80;49.13;100793.81;5046958;28;1348;-51
2023/05/06 05:12:50;;;;;;;;;;;;;;;16.68;49.63;100780.38;5054778;28;1521;-52
2023/05/06 05:15:16;;;;;;;;;;;;;;;16.56;49.95;100786.97;5054359;28;1399;-51
2023/05/06 05:17:42;;;;;;;;;;;;;;;16.41;50.32;100790.50;5050999;28;1457;-49
2023/05/06 05:20:07;;;;;;;;;;;;;;;16.37;50.28;100799.56;5059460;28;1410;-50
2023/05/06 05:22:34;;;;;;;;;;;;;;;16.25;50.78;100791.56;5044514;28;1423;-51
2023/05/06 05:25:00;;;;;;;;;;;;;;;16.16;51.24;100798.66;5045151;28;1293;-53
2023/05/06 05:27:26;;;;;;;;;;;;;;;16.10;51.20;100807.97;5044601;28;1906;-51
2023/05/06 05:29:54;;;;;;;;;;;;;;;16.97;49.34;100802.66;5046190;28;1348;-50
2023/05/06 05:32:20;;;;;;;;;;;;;;;17.06;49.17;100813.91;5047503;28;1452;-49
2023/05/06 05:34:46;;;;;;;;;;;;;;;16.56;50.37;100813.56;5047505;28;1232;-48
2023/05/06 05:37:12;;;;;;;;;;;;;;;16.35;51.08;100808.03;5042082;28;1159;-53
2023/05/06 05:39:38;;;;;;;;;;;;;;;16.23;51.28;100822.03;5058326;28;1274;-51
2023/05/06 05:42:04;;;;;;;;;;;;;;;16.10;51.64;100808.78;5058919;28;1146;-56
2023/05/06 05:44:32;;;;;;;;;;;;;;;16.32;51.48;100821.50;5059269;28;1297;-55
2023/05/06 05:46:58;;;;;;;;;;;;;;;17.32;48.85;100816.59;5040811;28;1906;-55
2023/05/06 05:49:24;;;;;;;;;;;;;;;16.66;50.54;100831.97;5052131;28;1139;-53
2023/05/06 05:51:51;;;;;;;;;;;;;;;16.42;51.25;100827.84;5055614;28;1193;-55
2023/05/06 05:54:19;;;;;;;;;;;;;;;16.30;51.70;100824.50;5048601;28;1296;-51
2023/05/06 05:56:45;;;;;;;;;;;;;;;16.72;50.84;100831.72;5059094;28;1237;-56
2023/05/06 05:59:10;;;;;;;;;;;;;;;17.61;48.39;100822.31;5044952;28;1192;-58
2023/05/06 06:01:36;;;;;;;;;;;;;;;16.77;50.59;100820.75;5058961;28;1218;-55
2023/05/06 06:04:03;;;;;;;;;;;;;;;16.53;51.19;100830.59;5057336;28;2115;-53
2023/05/06 06:06:28;;;;;;;;;;;;;;;16.39;51.82;100830.28;5074821;28;1902;-54
2023/05/06 06:08:54;;;;;;;;;;;;;;;16.25;52.05;100822.56;5029990;28;1297;-55
2023/05/06 06:11:21;;;;;;;;;;;;;;;16.19;52.26;100833.81;5058720;28;1379;-57
2023/05/06 06:13:46;;;;;;;;;;;;;;;17.63;48.94;100825.63;5044766;28;1273;-56
2023/05/06 06:16:13;;;;;;;;;;;;;;;16.91;50.53;100829.31;5066910;28;1268;-55
2023/05/06 06:18:39;;;;;;;;;;;;;;;16.56;51.58;100835.53;5058053;28;1023;-54
2023/05/06 06:21:04;;;;;;;;;;;;;;;16.39;52.13;100822.88;5076528;28;1055;-53
2023/05/06 06:23:30;;;;;;;;;;;;;;;16.21;52.37;100832.41;5076052;28;1138;-50
2023/05/06 06:25:56;;;;;;;;;;;;;;;16.62;51.58;100828.13;5058415;28;1902;-52
2023/05/06 06:28:22;;;;;;;;;;;;;;;17.48;49.55;100823.72;5078510;28;1174;-51
2023/05/06 06:30:47;;;;;;;;;;;;;;;16.73;51.44;100832.53;5057940;28;1071;-51
2023/05/06 06:33:13;;;;;;;;;;;;;;;16.47;52.00;100827.00;5062384;28;1405;-56
2023/05/06 06:35:39;;;;;;;;;;;;;;;16.28;52.64;100840.41;5058470;28;1279;-49
2023/05/06 06:38:04;;;;;;;;;;;;;;;16.19;52.64;100834.63;5075960;28;1026;-57
2023/05/06 06:40:30;;;;;;;;;;;;;;;16.96;51.13;100833.97;5078227;28;1066;-53
2023/05/06 06:42:56;;;;;;;;;;;;;;;17.26;50.17;100837.78;5076371;28;1154;-59
2023/05/06 06:45:56;;;;;;;;;;;;;;;16.62;51.93;100845.44;5013799;28;1906;-59
2023/05/06 06:48:22;;;;;;;;;;;;;;;16.36;52.76;100839.88;5062490;28;1043;-59
2023/05/06 06:50:48;;;;;;;;;;;;;;;16.28;53.03;100839.59;5075931;28;1226;-59
2023/05/06 06:53:13;;;;;;;;;;;;;;;16.27;52.90;100843.41;5079646;28;865;-59
2023/05/06 06:55:41;;;;;;;;;;;;;;;17.59;49.62;100836.34;5075754;28;1189;-58
2023/05/06 06:58:07;;;;;;;;;;;;;;;16.83;51.76;100842.69;5075797;28;1146;-59
2023/05/06 07:00:32;;;;;;;;;;;;;;;16.51;52.59;100838.25;5075479;28;1057;-60
2023/05/06 07:02:58;;;;;;;;;;;;;;;16.35;52.87;100840.97;5076013;28;1205;-60
2023/05/06 07:05:25;;;;;;;;;;;;;;;16.20;53.17;100846.41;5081741;28;1086;-48
2023/05/06 07:07:51;;;;;;;;;;;;;;;16.75;52.26;100842.16;5073729;28;1913;-58
2023/05/06 07:10:16;;;;;;;;;;;;;;;17.48;49.98;100844.91;5075499;28;1058;-50
2023/05/06 07:12:42;;;;;;;;;;;;;;;16.76;52.00;100852.03;5067109;28;1109;-49
2023/05/06 07:15:08;;;;;;;;;;;;;;;16.50;52.65;100848.44;5054945;28;1055;-48
2023/05/06 07:17:33;;;;;;;;;;;;;;;16.34;52.94;100855.81;5071673;28;945;-51
2023/05/06 07:19:59;;;;;;;;;;;;;;;16.20;53.47;100851.91;5056382;28;1079;-49
2023/05/06 07:22:25;;;;;;;;;;;;;;;17.01;51.65;100855.09;5074758;28;1126;-48
2023/05/06 07:24:51;;;;;;;;;;;;;;;17.23;50.59;100854.81;5070548;28;1174;-50
2023/05/06 07:27:17;;;;;;;;;;;;;;;16.70;52.08;100855.88;5054518;28;1905;-51
2023/05/06 07:29:42;;;;;;;;;;;;;;;16.41;52.94;100858.28;5069448;28;939;-50
2023/05/06 07:32:08;;;;;;;;;;;;;;;16.30;53.33;100860.19;5058346;28;1257;-51
2023/05/06 07:34:34;;;;;;;;;;;;;;;16.22;53.26;100857.97;5058742;28;1119;-50
2023/05/06 07:37:00;;;;;;;;;;;;;;;17.64;50.19;100849.25;5077070;28;928;-49
2023/05/06 07:39:26;;;;;;;;;;;;;;;16.89;51.87;100867.19;5078833;28;1261;-52
2023/05/06 07:41:51;;;;;;;;;;;;;;;16.51;52.88;100861.06;5084302;28;1162;-51
2023/05/06 07:44:17;;;;;;;;;;;;;;;16.36;53.30;100866.50;5058146;28;1174;-48
2023/05/06 07:46:43;;;;;;;;;;;;;;;16.23;53.42;100865.91;5058307;28;1988;-47
2023/05/06 07:49:08;;;;;;;;;;;;;;;17.44;50.76;100861.13;5058644;28;1140;-54
2023/05/06 07:51:34;;;;;;;;;;;;;;;17.05;51.67;100870.75;5058786;28;1332;-52
2023/05/06 07:54:00;;;;;;;;;;;;;;;16.66;52.76;100874.00;5080816;28;1020;-54
2023/05/06 07:56:26;;;;;;;;;;;;;;;16.42;53.17;100871.75;5058587;28;1280;-51
2023/05/06 07:58:51;;;;;;;;;;;;;;;16.32;53.40;100874.44;5072143;28;1098;-51
2023/05/06 08:01:17;;;;;;;;;;;;;;;16.41;53.39;100875.59;5078935;28;1075;-52
2023/05/06 08:03:42;;;;;;;;;;;;;;;17.52;50.35;100873.50;5079007;28;1019;-48
2023/05/06 08:06:08;;;;;;;;;;;;;;;16.83;52.29;100878.41;5093561;28;1909;-53
2023/05/06 08:08:33;;;;;;;;;;;;;;;16.55;53.11;100888.78;5073078;28;1122;-52
2023/05/06 08:10:59;;;;;;;;;;;;;;;16.34;53.50;100887.91;5065249;28;1182;-54
2023/05/06 08:13:26;;;;;;;;;;;;;;;16.28;53.73;100889.78;5074261;28;1074;-50
2023/05/06 08:15:52;;;;;;;;;;;;;;;16.70;52.93;100880.56;5069461;28;1122;-48
2023/05/06 08:18:18;;;;;;;;;;;;;;;17.41;50.83;100886.41;5065288;28;964;-50
2023/05/06 08:20:43;;;;;;;;;;;;;;;16.71;52.81;100897.88;5078688;28;1168;-50
2023/05/06 08:23:09;;;;;;;;;;;;;;;16.49;53.34;100884.38;5078128;28;1122;-51
2023/05/06 08:25:34;;;;;;;;;;;;;;;16.43;53.36;100887.09;5071747;28;1158;-52
2023/05/06 08:28:00;;;;;;;;;;;;;;;16.22;54.04;100875.22;5071297;28;1976;-54
2023/05/06 08:30:26;;;;;;;;;;;;;;;16.38;53.79;100892.59;5090638;28;1083;-50
2023/05/06 08:32:51;;;;;;;;;;;;;;;17.58;50.78;100888.88;5078368;28;1050;-50
2023/05/06 08:35:17;;;;;;;;;;;;;;;16.83;52.64;100883.91;5078121;28;1097;-52
2023/05/06 08:37:42;;;;;;;;;;;;;;;16.53;53.29;100896.47;5078465;28;1046;-49
2023/05/06 08:40:18;;;;;;;;;;;;;;;16.41;53.60;100899.44;5083603;28;1027;-50
2023/05/06 08:42:47;;;;;;;;;;;;;;;16.26;53.99;100894.75;5054009;28;1000;-52
2023/05/06 08:45:16;;;;;;;;;;;;;;;16.16;54.09;100892.78;5078255;28;1154;-51
2023/05/06 08:47:41;;;;;;;;;;;;;;;16.75;53.36;100899.00;5077616;28;1983;-53
2023/05/06 08:50:08;;;;;;;;;;;;;;;17.41;51.21;100898.22;5077801;28;1104;-53
2023/05/06 08:52:33;;;;;;;;;;;;;;;16.72;53.02;100889.38;5076414;28;987;-51
2023/05/06 08:55:02;;;;;;;;;;;;;;;16.52;53.56;100895.66;5065955;28;1034;-50
2023/05/06 08:57:28;;;;;;;;;;;;;;;16.31;54.03;100897.47;5076990;28;1015;-53
2023/05/06 08:59:53;;;;;;;;;;;;;;;16.20;54.44;100893.91;5077884;28;1035;-52
2023/05/06 09:02:20;;;;;;;;;;;;;;;17.29;51.80;100905.94;5077941;28;1208;-49
2023/05/06 09:04:46;;;;;;;;;;;;;;;17.15;52.03;100899.34;5079906;28;1042;-54
2023/05/06 09:07:11;;;;;;;;;;;;;;;16.66;53.40;100901.47;5079797;28;1976;-54
2023/05/06 09:09:37;;;;;;;;;;;;;;;16.43;53.94;100905.50;5077839;28;1058;-51
2023/05/06 09:12:03;;;;;;;;;;;;;;;16.34;53.95;100899.72;5077427;28;1146;-52
2023/05/06 09:14:28;;;;;;;;;;;;;;;16.19;54.39;100897.72;5078074;28;1035;-49
2023/05/06 09:16:54;;;;;;;;;;;;;;;16.17;54.46;100899.09;5077132;28;998;-51
2023/05/06 09:19:20;;;;;;;;;;;;;;;17.38;51.97;100901.53;5077137;28;1011;-51
2023/05/06 09:21:46;;;;;;;;;;;;;;;17.05;52.51;100900.97;5077330;28;1067;-53
2023/05/06 09:24:12;;;;;;;;;;;;;;;16.64;53.73;100897.34;5077113;28;1038;-51
2023/05/06 09:26:39;;;;;;;;;;;;;;;16.42;54.31;100893.72;5059516;28;1907;-52
2023/05/06 09:29:04;;;;;;;;;;;;;;;16.27;54.56;100892.81;5081092;28;1118;-47
2023/05/06 09:31:30;;;;;;;;;;;;;;;16.89;53.33;100891.09;5077081;28;1104;-51
2023/05/06 09:33:56;;;;;;;;;;;;;;;17.37;52.05;100894.38;5056727;28;1195;-53
2023/05/06 09:36:24;;;;;;;;;;;;;;;16.75;53.68;100891.56;5056509;28;1071;-47
2023/05/06 09:38:52;;;;;;;;;;;;;;;16.54;54.14;100887.16;5055742;28;977;-48
2023/05/06 09:41:19;;;;;;;;;;;;;;;16.35;54.63;100873.09;5067252;28;1305;-49
2023/05/06 09:43:47;;;;;;;;;;;;;;;16.30;54.60;100884.88;5067980;28;1182;-49
2023/05/06 09:46:16;;;;;;;;;;;;;;;16.62;54.42;100883.03;5047678;28;1913;-51
2023/05/06 09:48:41;;;;;;;;;;;;;;;17.55;51.80;100876.50;5077173;28;1234;-51
2023/05/06 09:51:07;;;;;;;;;;;;;;;16.76;53.90;100887.75;5076151;28;1210;-49
2023/05/06 09:53:36;;;;;;;;;;;;;;;16.54;54.34;100881.66;5073610;28;1043;-51
2023/05/06 09:56:05;;;;;;;;;;;;;;;16.41;54.67;100882.97;5066911;28;1127;-49
2023/05/06 09:58:31;;;;;;;;;;;;;;;16.29;54.70;100874.19;5041469;28;1119;-50
2023/05/06 10:00:56;;;;;;;;;;;;;;;16.17;54.85;100877.13;5066635;28;1174;-50
2023/05/06 10:03:22;;;;;;;;;;;;;;;16.23;55.00;100876.88;5089523;28;1027;-57
2023/05/06 10:05:48;;;;;;;;;;;;;;;17.69;51.84;100865.75;5082464;28;1031;-57
2023/05/06 10:08:17;;;;;;;;;;;;;;;16.92;53.43;100876.81;5058599;28;1976;-57
2023/05/06 10:10:42;;;;;;;;;;;;;;;16.63;54.33;100869.03;5058914;28;1015;-57
2023/05/06 10:13:08;;;;;;;;;;;;;;;16.48;54.50;100860.75;5076175;28;1146;-57
2023/05/06 10:15:33;;;;;;;;;;;;;;;16.31;54.60;100850.84;5076693;28;1101;-56
2023/05/06 10:18:00;;;;;;;;;;;;;;;16.23;54.77;100865.91;5079698;28;1093;-57
2023/05/06 10:20:26;;;;;;;;;;;;;;;16.14;55.17;100861.22;5064445;28;1220;-56
2023/05/06 10:23:00;;;;;;;;;;;;;;;17.49;52.47;100863.03;5052486;28;1517;-53
2023/05/06 10:25:30;;;;;;;;;;;;;;;16.95;53.70;100865.25;5076494;28;1138;-53
2023/05/06 10:27:56;;;;;;;;;;;;;;;16.59;54.52;100867.94;5075718;28;1909;-52
2023/05/06 10:30:22;;;;;;;;;;;;;;;16.48;54.64;100861.59;5066841;28;899;-51
2023/05/06 10:32:47;;;;;;;;;;;;;;;16.24;55.20;100861.25;5072580;28;1030;-56
2023/05/06 10:35:21;;;;;;;;;;;;;;;17.02;53.75;100852.06;5058422;28;1130;-54
2023/05/06 10:37:48;;;;;;;;;;;;;;;17.13;53.17;100874.06;5076146;28;1167;-57
2023/05/06 10:40:13;;;;;;;;;;;;;;;16.64;54.42;100861.63;5076020;28;1107;-55
2023/05/06 10:42:39;;;;;;;;;;;;;;;16.43;54.95;100865.16;5083923;28;1113;-55
2023/05/06 10:45:05;;;;;;;;;;;;;;;16.30;54.94;100856.59;5075862;28;1030;-54
2023/05/06 10:47:56;;;;;;;;;;;;;;;16.23;55.11;100829.44;5071423;28;1984;-55
2023/05/06 10:50:22;;;;;;;;;;;;;;;16.46;54.91;100857.47;5076095;28;1067;-56
2023/05/06 10:52:49;;;;;;;;;;;;;;;17.65;51.85;100856.41;5075885;28;1130;-56
2023/05/06 10:55:31;;;;;;;;;;;;;;;16.84;53.82;100867.13;5077602;28;883;-54
2023/05/06 10:57:59;;;;;;;;;;;;;;;16.52;54.92;100868.22;5075876;28;1206;-52
2023/05/06 11:00:25;;;;;;;;;;;;;;;16.36;54.91;100859.09;5059810;28;1098;-53
2023/05/06 11:02:59;;;;;;;;;;;;;;;16.34;55.37;100860.44;5063964;28;1039;-53
2023/05/06 11:05:25;;;;;;;;;;;;;;;17.58;52.06;100859.44;5080266;28;1137;-54
2023/05/06 11:07:52;;;;;;;;;;;;;;;16.83;54.27;100868.25;5081790;28;1981;-60
2023/05/06 11:10:37;;;;;;;;;;;;;;;16.56;54.95;100869.31;5079557;28;1078;-64
2023/05/06 11:13:19;;;;;;;;;;;;;;;16.34;55.28;100869.53;5079731;28;1479;-61
2023/05/06 11:15:45;;;;;;;;;;;;;;;16.27;55.35;100860.72;5080168;28;1075;-60
2023/05/06 11:18:23;;;;;;;;;;;;;;;16.98;54.05;100869.41;5085882;28;1038;-60
2023/05/06 11:20:50;;;;;;;;;;;;;;;17.20;53.41;100874.63;5068195;28;1111;-60
2023/05/06 11:23:17;;;;;;;;;;;;;;;16.66;54.89;100871.25;5083913;28;1158;-60
2023/05/06 11:25:45;;;;;;;;;;;;;;;16.49;54.96;100873.41;5077670;28;1232;-60
2023/05/06 11:28:11;;;;;;;;;;;;;;;16.36;55.44;100878.31;5059343;28;1910;-57
2023/05/06 11:30:39;;;;;;;;;;;;;;;16.24;55.64;100872.22;5079662;28;1099;-60
2023/05/06 11:33:06;;;;;;;;;;;;;;;17.43;53.28;100868.56;5048637;28;1146;-61
2023/05/06 11:35:37;;;;;;;;;;;;;;;17.04;54.11;100869.13;5061646;28;1236;-61
2023/05/06 11:38:03;;;;;;;;;;;;;;;16.67;54.89;100869.31;5060455;28;1281;-61
2023/05/06 11:40:29;;;;;;;;;;;;;;;16.53;55.38;100869.84;5079158;28;1062;-60
2023/05/06 11:42:55;;;;;;;;;;;;;;;16.41;55.43;100872.00;5089210;28;1018;-60
2023/05/06 11:45:21;;;;;;;;;;;;;;;16.28;55.78;100869.78;5066217;28;1230;-60
2023/05/06 11:47:46;;;;;;;;;;;;;;;16.17;55.58;100885.38;5079267;28;1906;-60
2023/05/06 11:50:12;;;;;;;;;;;;;;;16.11;55.78;100873.53;5079087;28;1162;-61
2023/05/06 11:52:38;;;;;;;;;;;;;;;16.15;56.05;100879.34;5079288;28;1046;-60
2023/05/06 11:55:06;;;;;;;;;;;;;;;17.54;53.45;100872.09;5078545;28;1528;-60
2023/05/06 11:57:32;;;;;;;;;;;;;;;16.82;55.08;100882.25;5079173;28;1189;-60
2023/05/06 11:59:57;;;;;;;;;;;;;;;16.52;56.01;100875.59;5079433;28;1034;-60
2023/05/06 12:02:23;;;;;;;;;;;;;;;16.41;55.72;100883.81;5078614;28;1050;-60
2023/05/06 12:04:49;;;;;;;;;;;;;;;17.09;54.65;100876.53;5078758;28;1112;-59
2023/05/06 12:07:15;;;;;;;;;;;;;;;17.13;54.43;100877.63;5091057;28;1906;-59
2023/05/06 12:09:41;;;;;;;;;;;;;;;16.69;55.57;100873.47;5078941;28;1082;-58
2023/05/06 12:12:06;;;;;;;;;;;;;;;16.52;55.88;100875.59;5078580;28;1121;-58
2023/05/06 12:14:32;;;;;;;;;;;;;;;16.35;56.02;100879.38;5060436;28;1083;-59
2023/05/06 12:16:58;;;;;;;;;;;;;;;16.21;56.29;100878.25;5078446;28;1007;-59
2023/05/06 12:19:23;;;;;;;;;;;;;;;16.26;55.99;100881.03;5084028;28;898;-58
2023/05/06 12:21:49;;;;;;;;;;;;;;;17.60;53.71;100875.69;5060640;28;1213;-53
2023/05/06 12:24:15;;;;;;;;;;;;;;;16.87;55.36;100874.84;5078232;28;1050;-56
2023/05/06 12:26:42;;;;;;;;;;;;;;;16.49;56.35;100873.41;5060531;28;1906;-59
2023/05/06 12:29:08;;;;;;;;;;;;;;;16.43;56.29;100873.38;5078392;28;1189;-60
2023/05/06 12:31:34;;;;;;;;;;;;;;;16.34;56.19;100882.41;5084814;28;1083;-59
2023/05/06 12:33:59;;;;;;;;;;;;;;;16.20;56.21;100876.59;5078293;28;1117;-59
2023/05/06 12:36:25;;;;;;;;;;;;;;;16.47;56.08;100878.34;5078063;28;1126;-60
2023/05/06 12:38:51;;;;;;;;;;;;;;;17.62;53.76;100867.97;5078504;28;1113;-59
2023/05/06 12:41:18;;;;;;;;;;;;;;;16.85;55.63;100876.22;5078064;28;1134;-58
2023/05/06 12:43:43;;;;;;;;;;;;;;;16.56;56.27;100865.72;5079215;28;912;-59
2023/05/06 12:46:11;;;;;;;;;;;;;;;16.47;55.95;100872.88;5078057;28;1909;-58